Latest Coastal Weather Observations for Orbost

IDV60701

Issued at 5:21 pm EST Saturday 2 July 2016 (issued every 10 minutes, with the page automatically refreshed every 10 minutes)

About coastal observations | Map of coastal stations | Coastal observations for VIC | Marine services | Other Formats
Station Details ID: 084145 Name: ORBOST Lat: -37.69 Lon: 148.47 Height: 62.65 m
Data from the previous 72 hours. | See also: Recent months at Orbost
Date/Time
EST
Temp
°C
Wind Pressure Rain since
9am
mm
Weather Cloud Vis
km
Sea
Height
m
Swell
Dir  Spd
kts
Gust
kts
hPa Trend Height
m
Period
s
Dir
02/05:00pm 13.2 WNW 1 3 1022.7 - 0.2 - - - - - - -
02/04:30pm 15.0 WNW 3 6 1022.4 - 0.2 - - - - - - -
02/04:00pm 15.7 WNW 4 6 1022.3 - 0.2 - - - - - - -
02/03:30pm 16.1 WNW 4 7 1022.0 - 0.2 - - - - - - -
02/03:00pm 16.2 W 6 10 1021.9 - 0.2 - - - - - - -
02/02:30pm 16.1 W 7 13 1022.0 - 0.2 - - - - - - -
02/02:00pm 15.9 W 9 13 1022.1 - 0.2 - - - - - - -
02/01:30pm 15.8 W 8 12 1022.1 - 0.2 - - - - - - -
02/01:00pm 15.9 W 9 15 1022.3 - 0.2 - - - - - - -
02/12:30pm 15.8 W 7 12 1022.5 - 0.2 - - - - - - -
02/12:00pm 15.3 WNW 8 13 1022.9 - 0.2 Recent precip. - - - - - -
02/11:30am 14.9 WNW 7 11 1023.3 - 0.2 - - - - - - -
02/11:00am 14.5 NW 6 9 1023.6 - 0.0 - - - - - - -
02/10:30am 13.2 WNW 6 9 1023.8 - 0.0 - - - - - - -
02/10:00am 13.2 NW 7 10 1023.5 - 0.0 - - - - - - -
02/09:30am 12.5 NW 6 9 1023.5 - 0.0 - - - - - - -
02/09:00am 10.7 NNW 5 8 1023.5 - 0.2 - - - - - - -
02/08:30am 10.4 NNW 5 8 1023.4 - 0.2 - - - - - - -
02/08:00am 9.6 NNW 8 11 1023.0 - 0.2 - - - - - - -
02/07:30am 9.4 NNW 7 12 1022.8 - 0.2 - - - - - - -
02/07:00am 9.8 NNW 8 11 1022.6 - 0.2 - - - - - - -
02/06:30am 10.0 NNW 8 11 1022.3 - 0.2 - - - - - - -
02/06:00am 10.2 NW 5 9 1022.4 - 0.2 - - - - - - -
02/05:30am 10.4 NNW 7 11 1022.1 - 0.2 - - - - - - -
02/05:00am 10.8 NW 7 9 1021.9 - 0.2 - - - - - - -
02/04:30am 11.0 NNW 7 11 1021.6 - 0.2 - - - - - - -
02/04:00am 10.7 NW 5 8 1021.4 - 0.2 - - - - - - -
02/03:30am 10.6 NNW 6 10 1021.4 - 0.2 - - - - - - -
02/03:00am 10.8 NNW 8 13 1021.5 - 0.2 - - - - - - -
02/02:30am 10.7 NNW 7 10 1021.6 - 0.2 - - - - - - -
02/02:00am 10.4 NNW 7 12 1021.5 - 0.2 - - - - - - -
02/01:30am 10.5 NNW 7 10 1021.6 - 0.2 - - - - - - -
02/01:00am 10.4 NNW 7 10 1021.6 - 0.2 - - - - - - -
02/12:30am 10.3 NNW 6 9 1021.7 - 0.2 - - - - - - -
02/12:00am 10.4 NNW 5 7 1021.8 - 0.2 - - - - - - -
 
Date/Time
EST
Temp
°C
Wind Pressure Rain since
9am
mm
Weather Cloud Vis
km
Sea
Height
m
Swell
Dir  Spd
kts
Gust
kts
hPa Trend Height
m
Period
s
Dir
01/11:30pm 10.3 NNW 6 10 1021.9 - 0.2 - - - - - - -
01/11:00pm 10.0 NNW 4 7 1021.8 - 0.2 - - - - - - -
01/10:30pm 9.9 NNW 3 4 1021.7 - 0.2 - - - - - - -
01/10:00pm 10.1 NNW 5 7 1021.8 - 0.2 - - - - - - -
01/09:30pm 9.2 N 5 6 1021.8 - 0.2 - - - - - - -
01/09:00pm 9.2 NNW 4 5 1021.9 - 0.2 - - - - - - -
01/08:30pm 9.4 NW 3 5 1022.0 - 0.2 - - - - - - -
01/08:00pm 9.2 NW 3 6 1021.9 - 0.2 - - - - - - -
01/07:30pm 8.9 NW 3 6 1021.6 - 0.2 - - - - - - -
01/07:00pm 9.1 NW 4 6 1021.4 - 0.2 - - - - - - -
01/06:30pm 9.1 NW 4 6 1021.2 - 0.2 - - - - - - -
01/06:00pm 9.8 WNW 5 7 1020.7 - 0.2 - - - - - - -
01/05:30pm 10.3 WNW 5 7 1020.1 - 0.2 - - - - - - -
01/05:00pm 10.1 NW 3 4 1019.7 - 0.2 - - - - - - -
01/04:30pm 10.2 WNW 3 6 1019.5 - 0.2 - - - - - - -
01/04:00pm 10.1 WSW 6 11 1019.2 - 0.2 - - - - - - -
01/03:30pm 10.3 WSW 8 13 1018.9 - 0.2 - - - - - - -
01/03:00pm 10.9 WSW 7 10 1018.5 - 0.0 - - - - - - -
01/02:30pm 11.3 WSW 5 7 1018.1 - 0.0 - - - - - - -
01/02:00pm 11.7 W 9 12 1018.0 - 0.0 - - - - - - -
01/01:30pm 13.1 W 7 13 1017.5 - 0.0 - - - - - - -
01/01:00pm 13.1 W 7 12 1017.3 - 0.0 - - - - - - -
01/12:30pm 13.1 WNW 7 13 1017.3 - 0.0 - - - - - - -
01/12:00pm 11.8 WNW 6 9 1017.4 - 0.0 - - - - - - -
01/11:30am 10.9 W 9 14 1017.6 - 0.0 - - - - - - -
01/11:00am 10.4 W 8 13 1017.6 - 0.0 - - - - - - -
01/10:30am 9.8 WNW 6 10 1017.4 - 0.0 - - - - - - -
01/10:00am 9.4 WNW 8 11 1016.9 - 0.0 - - - - - - -
01/09:30am 8.5 NW 6 9 1016.5 - 0.0 - - - - - - -
01/09:00am 8.1 NW 5 7 1016.1 - 0.8 - - - - - - -
01/08:30am 6.5 NNW 3 5 1015.7 - 0.8 - - - - - - -
01/08:00am 5.2 NNW 5 6 1015.3 - 0.8 - - - - - - -
01/07:30am 5.1 N 5 7 1014.9 - 0.8 - - - - - - -
01/07:00am 4.6 NW 2 3 1014.4 - 0.8 - - - - - - -
01/06:30am 4.9 NW 2 3 1013.6 - 0.8 - - - - - - -
01/06:00am 6.0 NW 3 5 1013.0 - 0.8 - - - - - - -
01/05:30am 5.8 NW 3 5 1012.6 - 0.8 - - - - - - -
01/05:00am 5.8 NW 3 4 1012.1 - 0.8 - - - - - - -
01/04:30am 6.5 WNW 2 3 1011.6 - 0.8 - - - - - - -
01/04:00am 7.2 CALM 0 1 1011.1 - 0.8 - - - - - - -
01/03:30am 7.5 NW 3 5 1010.8 - 0.8 - - - - - - -
01/03:00am 6.7 N 4 5 1010.6 - 0.8 Recent precip. - - - - - -
01/02:30am 7.5 NNE 2 3 1010.5 - 0.6 - - - - - - -
01/02:00am 7.3 N 3 3 1010.6 - 0.6 - - - - - - -
01/01:30am 7.5 NNE 2 3 1010.3 - 0.4 - - - - - - -
01/01:00am 8.0 NNW 3 4 1010.3 - 0.4 - - - - - - -
01/12:30am 8.0 WNW 4 8 1009.9 - 0.4 - - - - - - -
01/12:00am 7.9 WNW 3 5 1009.4 - 0.4 - - - - - - -
 
Date/Time
EST
Temp
°C
Wind Pressure Rain since
9am
mm
Weather Cloud Vis
km
Sea
Height
m
Swell
Dir  Spd
kts
Gust
kts
hPa Trend Height
m
Period
s
Dir
30/11:30pm 7.9 WNW 4 6 1008.6 - 0.4 - - - - - - -
30/11:00pm 8.6 N 10 14 1008.3 - 0.4 - - - - - - -
30/10:30pm 7.9 NNW 5 9 1009.1 - 0.2 - - - - - - -
30/10:00pm 6.8 WNW 3 5 1008.9 - 0.0 - - - - - - -
30/09:30pm 7.1 CALM 0 1 1008.4 - 0.0 - - - - - - -
30/09:00pm 7.4 ESE 1 2 1008.3 - 0.0 - - - - - - -
30/08:30pm 9.1 E 2 3 1008.4 - 0.0 - - - - - - -
30/08:00pm 9.4 ENE 3 5 1008.2 - 0.0 - - - - - - -
30/07:30pm 9.1 NE 2 3 1008.7 - 0.0 - - - - - - -
30/07:00pm 10.0 NE 2 4 1008.6 - 0.0 - - - - - - -
30/06:30pm 10.4 N 2 3 1008.3 - 0.0 - - - - - - -
30/06:00pm 10.8 NNE 4 6 1008.0 - 0.0 - - - - - - -
30/05:30pm 10.9 NNW 4 7 1008.2 - 0.0 - - - - - - -
30/05:00pm 11.5 ENE 2 3 1007.9 - 0.0 - - - - - - -
30/04:30pm 13.1 N 5 10 1007.6 - 0.0 - - - - - - -
30/04:00pm 13.4 NNW 8 13 1007.6 - 0.0 - - - - - - -
30/03:30pm 14.8 N 9 14 1007.5 - 0.0 - - - - - - -
30/03:00pm 13.8 N 11 18 1007.2 - 0.0 - - - - - - -
30/02:30pm 13.8 NNW 8 12 1008.3 - 0.0 - - - - - - -
30/02:00pm 13.9 N 5 10 1008.9 - 0.0 - - - - - - -
30/01:30pm 14.9 NNW 5 10 1009.6 - 0.0 - - - - - - -
30/01:00pm 14.3 N 6 9 1010.2 - 0.0 - - - - - - -
30/12:30pm 14.4 NNE 4 7 1010.9 - 0.0 - - - - - - -
30/12:00pm 14.0 NE 3 6 1011.5 - 0.0 - - - - - - -
30/11:30am 14.3 NNE 6 10 1012.3 - 0.0 - - - - - - -
30/11:00am 13.3 NNE 7 12 1012.9 - 0.0 - - - - - - -
30/10:30am 13.1 N 14 20 1013.1 - 0.0 - - - - - - -
30/10:00am 11.9 N 17 21 1013.3 - 0.0 - - - - - - -
30/09:30am 11.3 N 11 17 1013.8 - 0.0 - - - - - - -
30/09:00am 7.2 NNW 2 3 1014.4 - 0.0 - - - - - - -
30/08:30am 7.7 NNE 4 7 1014.7 - 0.0 - - - - - - -
30/08:00am 4.6 NNE 2 4 1014.9 - 0.0 - - - - - - -
30/07:30am 3.9 SSE 1 2 1015.2 - 0.0 - - - - - - -
30/07:00am 4.9 E 1 2 1015.3 - 0.0 - - - - - - -
30/06:30am 4.5 CALM 0 2 1015.6 - 0.0 - - - - - - -
30/06:00am 5.5 CALM 0 1 1015.6 - 0.0 - - - - - - -
30/05:30am 5.6 NNE 3 5 1015.9 - 0.0 - - - - - - -
30/05:00am 5.5 N 2 3 1016.3 - 0.0 - - - - - - -
30/04:30am 6.2 N 3 3 1016.7 - 0.0 - - - - - - -
30/04:00am 4.9 NNE 3 4 1016.9 - 0.0 - - - - - - -
30/03:30am 5.0 NNW 2 2 1017.2 - 0.0 - - - - - - -
30/03:00am 5.2 NNW 2 3 1017.4 - 0.0 - - - - - - -
30/02:30am 3.9 WNW 3 4 1017.6 - 0.0 - - - - - - -
30/02:00am 4.8 CALM 0 1 1017.7 - 0.0 - - - - - - -
30/01:30am 5.6 NNW 1 3 1018.1 - 0.0 - - - - - - -
30/01:00am 5.5 WNW 1 2 1018.5 - 0.0 - - - - - - -
30/12:30am 5.7 CALM 0 3 1019.0 - 0.0 - - - - - - -
30/12:00am 8.0 NNE 2 3 1019.3 - 0.0 - - - - - - -
 
Date/Time
EST
Temp
°C
Wind Pressure Rain since
9am
mm
Weather Cloud Vis
km
Sea
Height
m
Swell
Dir  Spd
kts
Gust
kts
hPa Trend Height
m
Period
s
Dir
29/11:30pm 8.5 NNE 2 4 1019.9 - 0.0 - - - - - - -
29/11:00pm 6.5 CALM 0 0 1020.3 - 0.0 - - - - - - -
29/10:30pm 8.3 CALM 0 1 1020.6 - 0.0 - - - - - - -
29/10:00pm 7.4 NNW 2 3 1021.1 - 0.0 - - - - - - -
29/09:30pm 8.2 CALM 0 2 1021.4 - 0.0 - - - - - - -
29/09:00pm 9.9 N 3 5 1021.7 - 0.0 - - - - - - -
29/08:30pm 11.3 NNE 4 6 1022.2 - 0.0 - - - - - - -
29/08:00pm 11.3 NE 3 4 1022.6 - 0.0 - - - - - - -
29/07:30pm 12.4 NNE 4 6 1022.8 - 0.0 - - - - - - -
29/07:00pm 12.6 NNE 3 5 1023.1 - 0.0 - - - - - - -
29/06:30pm 12.0 NE 3 5 1023.2 - 0.0 - - - - - - -
29/06:00pm 10.2 NNE 2 2 1023.3 - 0.0 - - - - - - -
29/05:30pm 11.8 NE 3 4 1023.2 - 0.0 - - - - - - -

Other Formats:

Comma delimited format used in spreadsheet applications
http://www.bom.gov.au/fwo/IDV60701/IDV60701.95918.axf

JavaScript Object Notation format (JSON) in row-major order
http://www.bom.gov.au/fwo/IDV60701/IDV60701.95918.json